Airfield :
LOGIN :

Register | Disclaimer

   EN    FR    IT 

 










Legend :    VFR   Marginal VFR   IFR   Intensive IFR   Very Intensive IFR
Visi :
Ceiling :
>= 8 km
>= 3000ft
5 to 8 km
1000 to 3000 ft
1500m to 5 km
500 to 1000 ft
800 to 1500m
200 to 500 ft
< 800m
< 200 ft
Symbols :   Thunderstorms  Fog  Heavy snow  Heavy precipitations  Wind > 20 kt
SIGMETs :     Misc.  Thunderstorms  Icing  Turbulence  Mountain Waves  Volcanic Ashes






- Airport Elevation : 32 ft
- IATA code : LKZ


EGUL - RAF Lakenheath

CURRENT METAR :
  • 011555Z 27015KT 9999 BKN035 09/06 A3015 RMK AO2A SLP213 T00930055 FZRANO $

EXPIRED METARs :
  • 011455Z 27016KT 9999 BKN039 09/06 A3013 RMK AO2A SLP207 T00940056 55001 FZRANO $
  • 011355Z 26014KT 9999 BKN042 09/06 A3013 RMK AO2A SLP207 T00920056 FZRANO $

TAF TAF EGUL
Valid from the 01 at 14:00 until the 02 at 20:00 UTC


011400Z 0114/0220 27015G25KT 9999 BKN030 620305 510001 520104 QNH3011INS
TEMPO 0114/0117 27020G30KT
BECMG 0118/0119 27010G20KT 9999 BKN020 620302 510001 520104 QNH3016INS
BECMG 0121/0122 27012KT 9999 SCT020 SCT050 QNH3019INS
BECMG 0203/0204 27012KT 9999 BKN015 OVC050 620304 QNH3021INS
BECMG 0208/0209 27010G20KT 9999 FEW015 BKN050 620502 QNH3022INS TX09/0115Z TN03/0206Z



MET'MAP, your aeronautical weather chart ! - Copyright ORBIFLY December 2007 - Disclaimer

ORBIFLY MET'MAP TEAM :

Programming & Development : Alexandra Zaïnal
Original concept : Baudouin d'Aumeries
Technical & hardware support : Manuel Goepfert
Assistance : Marc-Olivier Méhu




SOURCES & CREDITS :

   NOAA